• Join FlightAware (Why Join?)
  • Login
  • US Flag 
02:13AM EDT


 

Airport Tracker/Info


-or-


 

Live Flight TrackerFlight Track Log ✈ RPA3253 ✈ 09-Jun-2013 ✈ KALB - KCLT

Flight Track Log - Related Links

Times and Time Zones

All times are in EDT time to prevent confusion due to time zone crossing. See the RPA3253 flight status page for this flight to view local times or setup timezone preferences in your user account.

Time Position Orientation Groundspeed Altitude Reporting Facility
EDT Latitude Longitude Course Direction KTS MPH feet Rate Location/Type
07:36PM 42.7503 -73.8283 218° Southwest 147 169 1,200  Level Boston Center
07:36PM 42.7500 -73.8508 269° West 145 167 1,900 1,440 Climbing Boston Center
07:37PM 42.7469 -73.9328 267° West 230 265 3,300 1,680 Climbing Boston Center
07:38PM 42.7436 -74.0347 267° West 265 305 5,400 2,220 Climbing Boston Center
07:39PM 42.1412 -74.4570 219° Southwest  Level Estimated
07:39PM 42.7358 -74.1389 264° West 270 311 8,300  Level Boston Center
07:40PM 42.0703 -74.5324 218° Southwest  Level Estimated
07:40PM 42.7131 -74.2542 255° West 270 311 11,500  Level Boston Center
07:41PM 41.9993 -74.6076 218° Southwest  Level Estimated
07:41PM 42.6403 -74.2408 172° South 217 250 13,300  Level Boston Center
07:42PM 42.5517 -74.1789 153° Southeast 277 319 15,200 1,800 Climbing Boston Center
07:43PM 42.4733 -74.1206 151° Southeast 336 387 16,900 1,620 Climbing Boston Center
07:44PM 42.3828 -74.0506 150° Southeast 353 406 18,500 1,500 Climbing Boston Center
07:45PM 42.2961 -73.9894 152° Southeast 353 406 19,900 1,440 Climbing Boston Center
07:46PM 42.2053 -73.9228 151° Southeast 348 400 21,400 1,440 Climbing Boston Center
07:47PM 42.1225 -73.8619 151° Southeast 366 421 22,800 1,440 Climbing Boston Center
07:48PM 42.0297 -73.7928 151° Southeast 377 434 24,300 1,260 Climbing Boston Center
07:50PM 41.9367 -73.7322 154° Southeast 377 434 25,700 1,380 Climbing Boston Center
07:51PM 41.8203 -73.7019 169° South 366 421 27,400 1,500 Climbing Boston Center
07:52PM 41.6608 -73.6867 176° South 367 422 29,600 1,200 Climbing New York Center
07:53PM 41.5811 -73.7108 193° South 348 400 30,500 780 Climbing New York Center
07:54PM 41.5022 -73.7794 213° Southwest 326 375 31,200 780 Climbing New York Center
07:55PM 41.4214 -73.8503 213° Southwest 336 387 32,100 900 Climbing New York Center
07:56PM 41.3403 -73.9214 213° Southwest 349 402 33,000 780 Climbing New York Center
07:57PM 41.2569 -73.9975 214° Southwest 361 415 33,800 540 Climbing New York Center
07:58PM 41.1739 -74.0706 214° Southwest 366 421 34,100 420 Climbing New York Center
07:59PM 41.0883 -74.1433 213° Southwest 366 421 34,700 720 Climbing New York Center
08:00PM 41.0008 -74.2161 212° Southwest 366 421 35,600 660 Climbing New York Center
08:01PM 40.9175 -74.2914 214° Southwest 371 427 36,000 180 Climbing New York Center
08:02PM 40.8319 -74.3667 214° Southwest 371 427 36,000  Level New York Center
08:03PM 40.7561 -74.4556 222° Southwest 371 427 36,000  Level New York Center
08:04PM 40.6967 -74.5564 232° Southwest 358 412 36,000  Level New York Center
08:05PM 40.6331 -74.6597 231° Southwest 363 418 36,000  Level New York Center
08:06PM 40.5692 -74.7597 230° Southwest 368 423 36,000  Level New York Center
08:07PM 40.5011 -74.8622 229° Southwest 368 423 36,000  Level New York Center
08:08PM 40.4311 -74.9564 226° Southwest 368 423 36,000  Level New York Center
08:09PM 40.3608 -75.0556 227° Southwest 373 429 36,000  Level New York Center
08:10PM 40.2925 -75.1547 228° Southwest 373 429 36,000  Level New York Center
08:11PM 40.2242 -75.2536 228° Southwest 373 429 36,000  Level New York Center
08:12PM 40.1539 -75.3497 226° Southwest 373 429 36,000  Level New York Center
08:13PM 40.0833 -75.4508 228° Southwest 373 429 36,000  Level New York Center
08:14PM 40.0125 -75.5492 227° Southwest 373 429 36,000  Level New York Center
08:15PM 39.9419 -75.6472 227° Southwest 373 429 36,000  Level New York Center
08:16PM 39.8644 -75.7553 227° Southwest 373 429 36,000  Level New York Center
08:17PM 39.8103 -75.8489 233° Southwest 373 429 36,000  Level New York Center
08:18PM 39.7453 -75.9522 231° Southwest 373 429 36,000  Level New York Center
08:19PM 39.6825 -76.0528 231° Southwest 367 422 36,000  Level New York Center
08:21PM 39.5808 -76.2108 230° Southwest 356 410 36,000  Level Washington Center
08:22PM 39.5136 -76.3125 229° Southwest 361 415 36,000  Level Washington Center
08:23PM 39.4483 -76.4111 229° Southwest 361 415 36,000  Level Washington Center
08:24PM 39.3872 -76.5125 232° Southwest 361 415 36,000  Level Washington Center
08:25PM 39.3239 -76.6003 227° Southwest 367 422 36,000  Level Washington Center
08:26PM 39.2542 -76.7172 232° Southwest 367 422 36,000  Level Washington Center
08:27PM 39.1969 -76.8022 229° Southwest 372 428 36,000  Level Washington Center
08:28PM 39.1292 -76.9053 230° Southwest 372 428 36,000  Level Washington Center
08:29PM 39.0656 -77.0086 232° Southwest 372 428 36,000  Level Washington Center
08:30PM 38.9914 -77.0978 223° Southwest 372 428 36,000  Level Washington Center
08:31PM 38.9133 -77.1817 220° Southwest 372 428 36,000  Level Washington Center
08:32PM 38.8331 -77.2678 220° Southwest 372 428 36,000  Level Washington Center
08:33PM 38.7525 -77.3539 220° Southwest 377 434 36,000  Level Washington Center
08:34PM 38.6739 -77.4425 221° Southwest 382 440 36,000  Level Washington Center
08:35PM 38.5850 -77.5386 220° Southwest 382 440 36,000  Level Washington Center
08:36PM 38.5169 -77.6136 221° Southwest 372 428 36,000  Level Washington Center
08:37PM 38.4425 -77.6964 221° Southwest 372 428 36,000  Level Washington Center
08:38PM 38.3639 -77.7789 219° Southwest 367 422 36,000  Level Washington Center
08:39PM 38.2894 -77.8589 220° Southwest 367 422 36,000  Level Washington Center
08:40PM 38.2128 -77.9411 220° Southwest 367 422 36,000  Level Washington Center
08:41PM 38.1383 -78.0206 220° Southwest 367 422 36,000  Level Washington Center
08:42PM 38.0614 -78.1050 221° Southwest 367 422 36,000  Level Washington Center
08:43PM 37.9950 -78.1844 223° Southwest 351 404 36,000  Level Washington Center
08:44PM 37.9283 -78.2797 228° Southwest 351 404 36,000  Level Washington Center
08:45PM 37.8569 -78.3875 230° Southwest 358 412 36,000  Level Washington Center
08:46PM 37.7922 -78.4797 228° Southwest 358 412 36,000 -660 Level Washington Center
08:47PM 37.7253 -78.5744 228° Southwest 363 418 34,800 -1,020 Descending Washington Center
08:48PM 37.6603 -78.6689 229° Southwest 363 418 34,000 -420 Descending Washington Center
08:49PM 37.5997 -78.7503 227° Southwest 358 412 34,000 -420 Level Washington Center
08:50PM 37.5347 -78.8444 229° Southwest 358 412 33,200 -1,020 Descending Washington Center
08:51PM 37.4653 -78.9383 227° Southwest 363 418 32,000 -660 Descending Washington Center
08:52PM 37.3936 -79.0397 228° Southwest 370 426 32,000  Level Washington Center
08:53PM 37.3242 -79.1358 228° Southwest 376 433 32,000  Level Washington Center
08:54PM 37.2436 -79.2444 227° Southwest 381 438 32,000  Level Washington Center
08:55PM 37.1539 -79.3158 212° Southwest 381 438 32,000 -600 Level Washington Center
08:56PM 37.0703 -79.3897 215° Southwest 381 438 30,800 -1,680 Descending Washington Center
08:57PM 36.9844 -79.4608 214° Southwest 376 433 28,700 -1,380 Descending Washington Center
08:58PM 36.9008 -79.5269 212° Southwest 368 423 28,000 -360 Descending Washington Center
08:59PM 36.8258 -79.5881 213° Southwest 363 418 28,000  Level Washington Center
09:00PM 36.7464 -79.6564 215° Southwest 363 418 28,000 -420 Level Washington Center
09:01PM 36.6628 -79.7244 213° Southwest 363 418 27,200 -2,040 Descending Washington Center
09:02PM 36.5661 -79.8047 214° Southwest 368 423 24,000 -2,460 Descending Washington Center
09:03PM 36.4800 -79.8725 212° Southwest 376 433 22,400 -1,500 Descending Washington Center
09:03PM 36.4450 -79.8964 209° Southwest 378 435 22,000 -300 Descending Atlanta Center
09:04PM 36.3639 -79.9625 213° Southwest 371 427 22,000  Level Atlanta Center
09:05PM 36.2786 -80.0339 214° Southwest 366 421 22,000 -360 Level Atlanta Center
09:06PM 36.2078 -80.0967 216° Southwest 358 412 21,300 -1,200 Descending Atlanta Center
09:07PM 36.1367 -80.1567 214° Southwest 338 389 19,600 -1,800 Descending Atlanta Center
09:08PM 36.0656 -80.2164 214° Southwest 326 375 17,800 -1,860 Descending Atlanta Center
09:09PM 36.0006 -80.2708 214° Southwest 314 361 15,900 -2,280 Descending Atlanta Center
09:10PM 35.9558 -80.3114 216° Southwest 280 322 14,300 -2,460 Descending Atlanta Center
09:10PM 35.9375 -80.3303 220° Southwest 279 321 13,800 -1,020 Descending Atlanta Center
09:11PM 35.8744 -80.3844 215° Southwest 273 314 13,000 -720 Descending Atlanta Center
09:12PM 35.8136 -80.4358 214° Southwest 271 312 12,400 -1,020 Descending Atlanta Center
09:13PM 35.7525 -80.4869 214° Southwest 262 302 11,000 -960 Descending Atlanta Center
09:14PM 35.6825 -80.5208 201° Southwest 261 300 10,500 -1,200 Descending Atlanta Center
09:15PM 35.6086 -80.5622 204° Southwest 255 293 8,500 -1,560 Descending Atlanta Center
09:16PM 35.5469 -80.5956 204° Southwest 256 295 7,400 -1,080 Descending Atlanta Center
09:17PM 35.4792 -80.6317 203° Southwest 254 292 6,400 -1,200 Descending Atlanta Center
09:18PM 35.4194 -80.6647 204° Southwest 256 295 5,000 -1,260 Descending Atlanta Center
09:19PM 35.3731 -80.7250 227° Southwest 249 287 4,000 -480 Descending Atlanta Center
09:20PM 35.3331 -80.7828 230° Southwest 193 222 4,000 -300 Level Atlanta Center
09:21PM 35.2986 -80.8297 228° Southwest 176 203 3,400 -600 Descending Atlanta Center